Time;durP1;ratioP1;P1;durP2;ratioP2;P2;SDS_P1;SDS_P2;PMS_P1;PMS_P2;Temp;Humidity;BMP_temperature;BMP_pressure;BME280_temperature;BME280_humidity;BME280_pressure;Samples;Min_cycle;Max_cycle;Signal;HPM_P1;HPM_P2
2022/06/03 00:00:42;;;;;;;5.17;4.67;;;10.70;99.90;;;;;;5094811;28;20653;-69
2022/06/03 00:03:15;;;;;;;5.13;4.37;;;10.70;99.90;;;;;;5096308;28;20184;-68
2022/06/03 00:05:52;;;;;;;6.53;4.63;;;10.60;99.90;;;;;;5096276;28;20181;-68
2022/06/03 00:08:49;;;;;;;4.87;4.37;;;10.60;99.90;;;;;;5096240;28;20184;-68
2022/06/03 00:11:39;;;;;;;4.97;4.50;;;10.60;99.90;;;;;;5096134;28;20189;-68
2022/06/03 00:14:44;;;;;;;5.10;4.60;;;10.70;99.90;;;;;;5094539;28;20245;-68
2022/06/03 00:17:25;;;;;;;4.90;4.40;;;10.70;99.90;;;;;;5095816;28;20208;-68
2022/06/03 00:20:15;;;;;;;5.10;4.50;;;10.70;99.90;;;;;;5095822;28;20157;-68
2022/06/03 00:22:56;;;;;;;5.00;4.43;;;10.70;99.90;;;;;;5096260;28;20161;-67
2022/06/03 00:26:16;;;;;;;6.00;4.80;;;10.80;99.90;;;;;;5095937;28;20153;-67
2022/06/03 00:29:06;;;;;;;4.93;4.40;;;10.80;99.90;;;;;;5073270;28;20591;-68
2022/06/03 00:32:03;;;;;;;6.57;4.73;;;10.80;99.90;;;;;;5095932;28;20193;-68
2022/06/03 00:34:47;;;;;;;4.93;4.30;;;10.80;99.90;;;;;;5094399;28;20169;-68
2022/06/03 00:37:31;;;;;;;4.63;4.23;;;10.70;99.90;;;;;;5096199;28;20189;-68
2022/06/03 00:40:20;;;;;;;6.47;4.53;;;10.70;99.90;;;;;;5094338;28;20691;-68
2022/06/03 00:42:57;;;;;;;6.60;4.50;;;10.70;99.90;;;;;;5095780;28;20161;-68
2022/06/03 00:46:00;;;;;;;7.97;4.77;;;10.50;99.90;;;;;;5095220;28;20164;-68
2022/06/03 00:48:40;;;;;;;9.90;4.70;;;10.50;99.90;;;;;;5094393;28;20169;-68
2022/06/03 00:51:47;;;;;;;6.30;5.00;;;10.40;99.90;;;;;;5095293;28;20213;-68
2022/06/03 00:54:34;;;;;;;5.30;4.80;;;10.40;99.90;;;;;;5088449;28;20184;-68
2022/06/03 00:57:06;;;;;;;5.80;5.20;;;10.50;99.90;;;;;;5095297;28;20209;-68
2022/06/03 00:59:44;;;;;;;5.43;4.67;;;10.50;99.90;;;;;;5095033;28;20157;-68
2022/06/03 01:02:44;;;;;;;5.17;4.67;;;10.50;99.90;;;;;;5095087;28;20541;-68
2022/06/03 01:05:12;;;;;;;7.43;4.80;;;10.50;99.90;;;;;;5095448;28;20160;-68
2022/06/03 01:08:11;;;;;;;6.43;5.57;;;10.40;99.90;;;;;;5095000;28;20169;-68
2022/06/03 01:10:49;;;;;;;5.27;4.77;;;10.40;99.90;;;;;;5094990;28;20615;-68
2022/06/03 01:13:29;;;;;;;6.40;4.87;;;10.30;99.90;;;;;;5094999;28;20212;-68
2022/06/03 01:16:25;;;;;;;6.47;5.00;;;10.30;99.90;;;;;;5095452;28;20211;-68
2022/06/03 01:19:01;;;;;;;6.37;4.77;;;10.20;99.90;;;;;;5093674;28;20588;-68
2022/06/03 01:21:35;;;;;;;5.97;5.37;;;10.10;99.90;;;;;;5093641;28;20193;-68
2022/06/03 01:24:36;;;;;;;7.40;4.67;;;10.00;99.90;;;;;;5094826;28;20235;-68
2022/06/03 01:27:20;;;;;;;7.87;4.73;;;9.90;99.90;;;;;;5093202;28;20568;-68
2022/06/03 01:30:17;;;;;;;7.70;4.60;;;9.80;99.90;;;;;;5094606;28;20583;-68
2022/06/03 01:33:13;;;;;;;6.27;5.30;;;9.70;99.90;;;;;;5093928;28;20263;-67
2022/06/03 01:36:15;;;;;;;6.53;5.20;;;9.70;99.90;;;;;;5094897;28;20562;-67
2022/06/03 01:38:59;;;;;;;5.93;5.37;;;9.70;99.90;;;;;;5094631;28;20255;-68
2022/06/03 01:41:33;;;;;;;5.93;5.33;;;9.70;99.90;;;;;;5095052;28;20527;-68
2022/06/03 01:44:32;;;;;;;5.43;4.93;;;9.70;99.90;;;;;;5094424;28;20149;-68
2022/06/03 01:47:17;;;;;;;6.87;4.60;;;9.80;99.90;;;;;;5095009;28;20163;-67
2022/06/03 01:50:11;;;;;;;5.80;5.20;;;9.80;99.90;;;;;;5094715;28;20162;-68
2022/06/03 01:52:43;;;;;;;6.97;5.60;;;9.70;99.90;;;;;;5094641;28;20162;-68
2022/06/03 01:55:39;;;;;;;6.23;5.00;;;9.80;99.90;;;;;;5094628;28;20248;-68
2022/06/03 01:58:18;;;;;;;5.70;5.03;;;9.80;99.90;;;;;;5094755;28;20244;-68
2022/06/03 02:00:58;;;;;;;8.67;5.63;;;9.70;99.90;;;;;;5092862;28;20326;-68
2022/06/03 02:03:48;;;;;;;6.83;5.67;;;9.70;99.90;;;;;;5094601;28;20157;-67
2022/06/03 02:06:15;;;;;;;6.27;5.17;;;9.60;99.90;;;;;;5092968;28;20173;-67
2022/06/03 02:09:29;;;;;;;6.53;5.40;;;9.60;99.90;;;;;;5092942;28;20212;-69
2022/06/03 02:12:10;;;;;;;8.03;5.70;;;9.50;99.90;;;;;;5089212;28;20580;-67
2022/06/03 02:14:57;;;;;;;6.77;5.50;;;9.50;99.90;;;;;;5094039;28;20223;-67
2022/06/03 02:17:26;;;;;;;5.97;5.43;;;9.50;99.90;;;;;;5094265;28;20230;-69
2022/06/03 02:20:30;;;;;;;5.67;5.17;;;9.50;99.90;;;;;;5093043;28;20173;-68
2022/06/03 02:23:30;;;;;;;6.90;5.47;;;9.50;99.90;;;;;;5094360;28;20161;-68
2022/06/03 02:26:35;;;;;;;7.97;5.63;;;9.50;99.90;;;;;;5094365;28;20165;-68
2022/06/03 02:32:11;;;;;;;9.40;6.00;;;9.30;99.90;;;;;;5094414;28;20283;-68
2022/06/03 02:34:51;;;;;;;6.37;5.77;;;9.30;99.90;;;;;;5094739;28;20153;-68
2022/06/03 02:37:36;;;;;;;6.00;5.40;;;9.30;99.90;;;;;;5095461;28;20188;-68
2022/06/03 02:40:11;;;;;;;8.23;5.77;;;9.20;99.90;;;;;;5096821;28;20193;-68
2022/06/03 02:42:46;;;;;;;8.20;5.93;;;9.20;99.90;;;;;;5099019;28;20235;-68
2022/06/03 02:45:19;;;;;;;7.53;5.20;;;9.10;99.90;;;;;;5101422;28;20515;-68
2022/06/03 02:47:44;;;;;;;8.13;5.90;;;9.10;99.90;;;;;;5101236;28;20229;-70
2022/06/03 02:50:13;;;;;;;9.10;5.87;;;9.10;99.90;;;;;;5098073;28;20232;-68
2022/06/03 02:53:17;;;;;;;6.00;5.33;;;9.10;99.90;;;;;;5098096;28;20173;-68
2022/06/03 02:55:46;;;;;;;6.40;5.80;;;9.10;99.90;;;;;;5098088;28;20191;-67
2022/06/03 02:58:17;;;;;;;7.03;5.80;;;9.00;99.90;;;;;;5096692;28;20229;-68
2022/06/03 03:01:00;;;;;;;7.10;5.53;;;9.00;99.90;;;;;;5097427;28;20263;-68
2022/06/03 03:03:56;;;;;;;7.80;5.90;;;9.00;99.90;;;;;;5097734;28;20588;-68
2022/06/03 03:06:33;;;;;;;9.03;5.50;;;9.00;99.90;;;;;;5097575;28;20170;-67
2022/06/03 03:09:18;;;;;;;8.27;5.40;;;8.90;99.90;;;;;;5096339;28;20271;-67
2022/06/03 03:11:46;;;;;;;6.40;5.40;;;8.90;99.90;;;;;;5096169;28;20280;-68
2022/06/03 03:14:48;;;;;;;7.83;5.57;;;8.80;99.90;;;;;;5097489;28;20185;-68
2022/06/03 03:18:12;;;;;;;6.17;5.57;;;8.90;99.90;;;;;;5062142;28;20226;-68
2022/06/03 03:21:12;;;;;;;8.07;6.00;;;8.90;99.90;;;;;;5074208;28;20740;-67
2022/06/03 03:24:11;;;;;;;7.37;5.60;;;8.90;99.90;;;;;;5096095;28;20660;-67
2022/06/03 03:27:09;;;;;;;6.17;5.57;;;8.90;99.90;;;;;;5096185;28;20264;-67
2022/06/03 03:29:44;;;;;;;6.60;5.67;;;8.80;99.90;;;;;;5075584;28;20661;-67
2022/06/03 03:32:44;;;;;;;8.07;6.33;;;8.70;99.90;;;;;;5097370;28;20244;-67
2022/06/03 03:35:28;;;;;;;5.97;5.37;;;8.60;99.90;;;;;;5097032;28;20200;-66
2022/06/03 03:38:22;;;;;;;11.63;6.93;;;8.70;99.90;;;;;;5095646;28;20195;-66
2022/06/03 03:40:53;;;;;;;6.73;5.83;;;8.70;99.90;;;;;;5095561;28;20217;-66
2022/06/03 03:43:31;;;;;;;6.67;5.97;;;8.80;99.90;;;;;;5096998;28;20511;-66
2022/06/03 03:46:27;;;;;;;6.77;6.00;;;8.80;99.90;;;;;;5096492;28;20158;-66
2022/06/03 03:49:19;;;;;;;7.23;5.90;;;8.70;99.90;;;;;;5095442;28;20174;-66
2022/06/03 03:52:22;;;;;;;7.20;6.27;;;8.60;99.90;;;;;;5096731;28;20202;-66
2022/06/03 03:55:15;;;;;;;7.27;5.67;;;8.60;99.90;;;;;;5094778;28;20177;-66
2022/06/03 03:57:59;;;;;;;7.37;6.10;;;8.60;99.90;;;;;;5095162;28;20614;-67
2022/06/03 04:01:03;;;;;;;6.50;5.63;;;8.50;99.90;;;;;;5096328;28;20207;-67
2022/06/03 04:03:59;;;;;;;7.93;6.10;;;8.40;99.90;;;;;;5096569;28;20218;-67
2022/06/03 04:06:25;;;;;;;6.47;5.87;;;8.50;99.90;;;;;;5095990;28;20169;-68
2022/06/03 04:09:38;;;;;;;8.07;6.20;;;8.60;99.90;;;;;;5096078;28;20664;-68
2022/06/03 04:12:13;;;;;;;8.33;5.93;;;8.50;99.90;;;;;;5097487;28;20265;-68
2022/06/03 04:14:39;;;;;;;6.60;5.57;;;8.60;99.90;;;;;;5096999;28;20199;-67
2022/06/03 04:17:25;;;;;;;6.87;5.80;;;8.70;99.90;;;;;;5096439;28;20205;-68
2022/06/03 04:20:21;;;;;;;8.70;6.10;;;8.80;99.90;;;;;;5097151;28;20161;-67
2022/06/03 04:23:03;;;;;;;8.03;6.40;;;8.90;99.90;;;;;;5097209;28;20507;-68
2022/06/03 04:25:47;;;;;;;8.10;6.17;;;8.90;99.90;;;;;;5097242;28;20165;-68
2022/06/03 04:28:19;;;;;;;6.73;5.93;;;9.00;99.90;;;;;;5096858;28;20735;-68
2022/06/03 04:31:10;;;;;;;6.50;5.90;;;9.00;99.90;;;;;;5095126;28;20226;-68
2022/06/03 04:34:06;;;;;;;7.43;6.60;;;9.00;99.90;;;;;;5097465;28;20153;-68
2022/06/03 04:36:51;;;;;;;9.13;6.53;;;9.00;99.90;;;;;;5095532;28;20261;-68
2022/06/03 04:39:22;;;;;;;9.50;6.80;;;9.20;99.90;;;;;;5094982;28;20211;-68
2022/06/03 04:42:22;;;;;;;8.93;6.50;;;9.20;99.90;;;;;;5096567;28;20207;-68
2022/06/03 04:45:12;;;;;;;8.00;6.47;;;9.40;99.90;;;;;;5096534;28;20153;-68
2022/06/03 04:48:06;;;;;;;7.50;6.20;;;9.40;99.90;;;;;;5095013;28;20177;-68
2022/06/03 04:50:53;;;;;;;8.00;6.80;;;9.50;99.90;;;;;;5094928;28;20196;-68
2022/06/03 04:53:42;;;;;;;8.90;6.70;;;9.60;99.90;;;;;;5096575;28;20166;-68
2022/06/03 04:56:50;;;;;;;7.53;6.70;;;9.60;99.90;;;;;;5094898;28;20654;-68
2022/06/03 04:59:35;;;;;;;8.30;6.63;;;9.70;99.90;;;;;;5096403;28;20189;-68
2022/06/03 05:02:13;;;;;;;6.70;6.00;;;9.80;99.90;;;;;;5096226;28;20196;-68
2022/06/03 05:05:16;;;;;;;8.00;6.30;;;9.80;99.90;;;;;;5096137;28;20173;-68
2022/06/03 05:08:13;;;;;;;8.30;6.37;;;9.90;99.90;;;;;;5095960;28;20179;-68
2022/06/03 05:10:54;;;;;;;6.70;5.97;;;10.00;99.90;;;;;;5095983;28;20201;-68
2022/06/03 05:13:50;;;;;;;8.10;6.33;;;10.10;99.90;;;;;;5094546;28;20184;-69
2022/06/03 05:16:56;;;;;;;9.83;6.23;;;10.20;99.90;;;;;;5095930;28;20540;-68
2022/06/03 05:19:30;;;;;;;7.27;6.03;;;10.30;99.90;;;;;;5095028;28;20161;-68
2022/06/03 05:22:20;;;;;;;9.83;5.60;;;10.40;99.90;;;;;;5095310;28;20597;-68
2022/06/03 05:24:56;;;;;;;7.97;6.03;;;10.50;99.90;;;;;;5095098;28;20168;-68
2022/06/03 05:27:40;;;;;;;8.97;5.60;;;10.60;99.90;;;;;;5094716;28;20192;-68
2022/06/03 05:30:33;;;;;;;8.63;6.20;;;10.70;99.90;;;;;;5096074;28;20232;-68
2022/06/03 05:33:17;;;;;;;9.80;6.77;;;10.80;99.90;;;;;;5094990;28;20273;-68
2022/06/03 05:36:04;;;;;;;7.07;6.23;;;10.90;99.90;;;;;;5096125;28;20653;-68
2022/06/03 05:39:14;;;;;;;8.37;6.43;;;11.00;99.90;;;;;;5096295;28;20314;-68
2022/06/03 05:44:48;;;;;;;7.13;5.43;;;11.30;99.90;;;;;;5094168;28;20199;-66
2022/06/03 05:47:22;;;;;;;7.40;5.90;;;11.40;99.90;;;;;;5094215;28;20601;-66
2022/06/03 05:50:00;;;;;;;7.17;6.03;;;11.50;99.90;;;;;;5092974;28;20267;-66
2022/06/03 05:52:35;;;;;;;7.83;6.43;;;11.60;99.90;;;;;;5094180;28;20508;-66
2022/06/03 05:55:21;;;;;;;7.10;6.07;;;11.70;99.90;;;;;;5094113;28;20625;-66
2022/06/03 05:58:08;;;;;;;7.00;6.13;;;11.80;99.90;;;;;;5094569;28;20164;-66
2022/06/03 06:00:55;;;;;;;8.23;6.10;;;12.00;99.90;;;;;;5093970;28;20649;-68
2022/06/03 06:03:34;;;;;;;6.77;6.07;;;12.10;99.90;;;;;;5093203;28;20657;-67
2022/06/03 06:06:28;;;;;;;7.30;5.80;;;12.20;99.90;;;;;;5094372;28;20161;-66
2022/06/03 06:08:54;;;;;;;6.97;5.43;;;12.30;99.90;;;;;;5079881;28;20193;-66
2022/06/03 06:11:29;;;;;;;6.67;5.97;;;12.50;99.90;;;;;;5073877;28;20198;-66
2022/06/03 06:14:18;;;;;;;6.73;6.03;;;12.60;99.90;;;;;;5072409;28;20599;-67
2022/06/03 06:16:45;;;;;;;6.38;5.25;;;12.70;99.90;;;;;;5072662;28;20328;-67
2022/06/03 06:19:11;;;;;;;5.87;5.27;;;12.90;99.90;;;;;;5071608;28;20205;-68
2022/06/03 06:22:05;;;;;;;7.65;6.00;;;13.00;99.90;;;;;;5073413;28;20243;-68
2022/06/03 06:24:34;;;;;;;8.30;5.70;;;13.10;99.90;;;;;;5072123;28;20154;-67
2022/06/03 06:27:37;;;;;;;6.00;5.25;;;13.20;99.90;;;;;;5073212;28;20230;-68
2022/06/03 06:30:34;;;;;;;7.95;5.18;;;13.30;99.90;;;;;;5071731;28;20205;-67
2022/06/03 06:33:21;;;;;;;5.53;4.90;;;13.50;99.90;;;;;;5071736;28;20189;-67
2022/06/03 06:35:53;;;;;;;7.65;5.72;;;13.60;99.90;;;;;;5074112;28;20621;-67
2022/06/03 06:38:44;;;;;;;4.80;4.32;;;13.80;99.90;;;;;;5073228;28;20228;-68
2022/06/03 06:41:23;;;;;;;6.30;5.18;;;13.90;99.90;;;;;;5073775;28;20548;-67
2022/06/03 06:44:14;;;;;;;6.65;4.90;;;14.10;99.90;;;;;;5073789;28;20616;-68
2022/06/03 06:46:52;;;;;;;6.65;5.22;;;14.20;99.90;;;;;;5073239;28;20177;-68
2022/06/03 06:49:25;;;;;;;6.93;5.00;;;14.30;99.90;;;;;;5073545;28;20162;-68
2022/06/03 06:52:35;;;;;;;5.78;4.60;;;14.40;99.90;;;;;;5071859;28;20193;-67
2022/06/03 06:55:19;;;;;;;5.35;4.20;;;14.50;99.90;;;;;;5073473;28;20154;-68
2022/06/03 06:57:48;;;;;;;7.22;4.45;;;14.60;99.90;;;;;;5073144;28;20235;-67
2022/06/03 07:00:19;;;;;;;4.57;4.18;;;14.70;99.90;;;;;;5071529;28;20194;-68
2022/06/03 07:02:44;;;;;;;4.97;4.15;;;14.80;99.90;;;;;;5073035;28;20166;-67
2022/06/03 07:05:10;;;;;;;4.20;3.78;;;14.90;99.90;;;;;;5072918;28;20170;-68
2022/06/03 07:07:52;;;;;;;5.25;4.30;;;15.00;99.90;;;;;;5071706;28;20209;-67
2022/06/03 07:10:43;;;;;;;4.32;3.92;;;15.10;99.90;;;;;;5072923;28;20194;-67
2022/06/03 07:13:22;;;;;;;4.85;3.90;;;15.30;99.90;;;;;;5072987;28;20186;-69
2022/06/03 07:16:10;;;;;;;5.57;4.22;;;15.40;99.90;;;;;;5072928;28;20704;-67
2022/06/03 07:21:49;;;;;;;4.10;3.65;;;15.80;99.90;;;;;;5072912;28;20205;-67
2022/06/03 07:24:20;;;;;;;3.88;3.58;;;15.90;99.90;;;;;;5072830;28;20174;-67
2022/06/03 07:26:49;;;;;;;4.25;3.40;;;16.00;99.90;;;;;;5073120;28;20524;-68
2022/06/03 07:29:18;;;;;;;3.53;2.97;;;16.10;99.90;;;;;;5071753;28;20263;-68
2022/06/03 07:31:50;;;;;;;3.40;3.10;;;16.20;99.90;;;;;;5076248;28;20193;-67
2022/06/03 07:34:19;;;;;;;3.40;3.10;;;16.30;99.90;;;;;;5077204;28;20192;-67
2022/06/03 07:37:01;;;;;;;3.55;3.25;;;16.50;99.90;;;;;;5076613;28;20277;-67
2022/06/03 07:39:38;;;;;;;3.20;2.90;;;16.60;99.90;;;;;;5076595;28;20630;-67
2022/06/03 07:42:25;;;;;;;4.53;2.95;;;16.70;99.90;;;;;;5075356;28;20169;-67
2022/06/03 07:45:15;;;;;;;3.97;2.80;;;16.90;99.90;;;;;;5076390;28;20173;-67
2022/06/03 07:47:41;;;;;;;4.47;2.50;;;17.00;99.90;;;;;;5075220;28;20255;-67
2022/06/03 07:50:15;;;;;;;2.80;2.60;;;17.10;99.90;;;;;;5075184;28;20206;-67
2022/06/03 07:53:20;;;;;;;2.83;2.60;;;17.20;99.90;;;;;;5075130;28;20177;-67
2022/06/03 07:55:55;;;;;;;3.20;2.90;;;17.30;99.90;;;;;;5074988;28;20201;-67
2022/06/03 07:58:23;;;;;;;3.25;2.95;;;17.40;99.90;;;;;;5076813;28;20224;-67
2022/06/03 08:00:49;;;;;;;3.17;2.88;;;17.50;99.90;;;;;;5075022;28;20208;-67
2022/06/03 08:03:24;;;;;;;3.33;2.90;;;17.60;99.90;;;;;;5075085;28;20180;-67
2022/06/03 08:05:58;;;;;;;4.22;3.42;;;17.70;99.90;;;;;;5076518;28;20173;-67
2022/06/03 08:11:17;;;;;;;4.28;3.35;;;17.80;99.90;;;;;;5076460;28;20193;-68
2022/06/03 08:13:47;;;;;;;6.47;3.63;;;17.90;99.90;;;;;;5075925;28;20198;-68
2022/06/03 08:16:25;;;;;;;5.13;3.20;;;17.90;99.90;;;;;;5075720;28;20197;-67
2022/06/03 08:18:55;;;;;;;3.65;3.28;;;17.80;99.90;;;;;;5076293;28;20161;-68
2022/06/03 08:21:31;;;;;;;3.95;3.30;;;17.90;99.90;;;;;;5076058;28;20193;-68
2022/06/03 08:23:59;;;;;;;4.75;3.97;;;17.90;99.90;;;;;;5074701;28;20780;-67
2022/06/03 08:26:27;;;;;;;5.95;4.18;;;18.00;99.90;;;;;;5075840;28;20196;-67
2022/06/03 08:29:09;;;;;;;4.47;3.80;;;18.00;99.90;;;;;;5075968;28;20263;-68
2022/06/03 08:31:37;;;;;;;8.82;4.40;;;18.00;99.90;;;;;;5075657;28;20208;-67
2022/06/03 08:34:06;;;;;;;5.43;3.53;;;18.00;99.90;;;;;;5075906;28;20235;-67
2022/06/03 08:36:37;;;;;;;10.25;4.43;;;18.10;99.90;;;;;;5076805;28;20217;-67
2022/06/03 08:39:06;;;;;;;4.50;3.30;;;18.20;99.90;;;;;;5077185;28;20537;-68
2022/06/03 08:42:10;;;;;;;4.88;3.47;;;18.40;99.90;;;;;;5075601;28;20193;-67
2022/06/03 08:45:16;;;;;;;4.63;3.60;;;18.60;99.90;;;;;;5076087;28;20158;-68
2022/06/03 08:47:56;;;;;;;5.38;3.53;;;18.80;99.90;;;;;;5070656;28;20190;-67
2022/06/03 08:50:39;;;;;;;3.60;3.30;;;18.90;99.90;;;;;;5074261;28;20189;-68
2022/06/03 08:53:08;;;;;;;3.78;3.25;;;19.00;99.90;;;;;;5075263;28;20151;-68
2022/06/03 08:55:55;;;;;;;4.15;3.70;;;19.10;99.90;;;;;;5075242;28;20346;-68
2022/06/03 08:58:48;;;;;;;3.67;3.17;;;19.20;99.90;;;;;;5076073;28;20516;-68
2022/06/03 09:01:27;;;;;;;4.40;3.15;;;19.40;99.90;;;;;;5074840;28;20190;-67
2022/06/03 09:04:01;;;;;;;5.03;3.78;;;19.70;99.90;;;;;;5075334;28;20150;-68
2022/06/03 09:06:30;;;;;;;4.28;3.60;;;19.90;99.90;;;;;;5075055;28;20177;-67
2022/06/03 09:09:03;;;;;;;4.40;3.60;;;20.10;99.90;;;;;;5074811;28;20231;-68
2022/06/03 09:11:42;;;;;;;4.75;4.18;;;20.20;99.90;;;;;;5074854;28;20226;-68
2022/06/03 09:14:12;;;;;;;5.47;4.00;;;20.50;99.90;;;;;;5073790;28;20197;-68
2022/06/03 09:16:40;;;;;;;5.93;3.90;;;20.60;99.90;;;;;;5074811;28;20595;-68
2022/06/03 09:19:25;;;;;;;5.18;3.90;;;20.70;99.90;;;;;;5075316;28;20172;-68
2022/06/03 09:21:53;;;;;;;6.20;3.70;;;20.90;99.90;;;;;;5075354;28;20189;-68
2022/06/03 09:24:29;;;;;;;8.23;4.78;;;21.10;99.90;;;;;;5074945;28;20194;-67
2022/06/03 09:26:58;;;;;;;7.38;4.25;;;21.20;99.90;;;;;;5073348;28;20215;-68
2022/06/03 09:29:25;;;;;;;4.38;3.95;;;21.30;99.90;;;;;;5073218;28;20273;-69
2022/06/03 09:31:58;;;;;;;7.22;3.90;;;21.40;99.90;;;;;;5072923;28;20209;-70
2022/06/03 09:34:40;;;;;;;5.55;4.05;;;21.60;99.90;;;;;;5074385;28;20244;-70
2022/06/03 09:37:09;;;;;;;3.90;3.47;;;21.70;99.90;;;;;;5073069;28;20201;-70
2022/06/03 09:39:35;;;;;;;5.32;4.53;;;21.80;99.90;;;;;;5074147;28;20189;-70
2022/06/03 09:42:03;;;;;;;4.93;4.18;;;21.70;99.90;;;;;;5074505;28;20221;-70
2022/06/03 09:44:29;;;;;;;5.32;4.47;;;21.40;99.90;;;;;;5074428;28;20178;-70
2022/06/03 09:47:01;;;;;;;4.45;3.60;;;21.40;99.90;;;;;;5072800;28;20616;-70
2022/06/03 09:49:29;;;;;;;4.38;3.42;;;21.50;99.90;;;;;;5074508;28;20161;-70
2022/06/03 09:51:55;;;;;;;4.38;2.92;;;21.80;99.90;;;;;;5074254;28;20612;-70
2022/06/03 09:54:24;;;;;;;3.53;3.22;;;22.10;99.90;;;;;;5071987;28;20180;-70
2022/06/03 09:56:52;;;;;;;2.85;2.65;;;22.30;99.90;;;;;;5074098;28;20224;-70
2022/06/03 09:59:20;;;;;;;4.63;3.10;;;22.60;99.90;;;;;;5074349;28;20162;-70
2022/06/03 10:01:48;;;;;;;4.03;3.20;;;22.70;99.90;;;;;;5073878;28;20198;-70
2022/06/03 10:04:15;;;;;;;4.10;3.00;;;22.70;99.90;;;;;;5075070;28;20253;-71
2022/06/03 10:06:48;;;;;;;3.67;3.00;;;22.50;99.90;;;;;;5074269;28;20177;-70
2022/06/03 10:17:49;;;;;;;4.68;2.42;;;22.80;99.90;;;;;;5073845;28;20616;-68
2022/06/03 10:20:16;;;;;;;2.65;2.42;;;23.00;99.90;;;;;;5072281;28;20300;-68
2022/06/03 10:22:44;;;;;;;3.30;2.50;;;23.20;99.90;;;;;;5073448;28;20245;-68
2022/06/03 10:25:11;;;;;;;4.28;2.25;;;23.30;99.90;;;;;;5073405;28;20201;-68
2022/06/03 10:27:36;;;;;;;2.50;2.30;;;23.20;99.90;;;;;;5073436;28;20182;-68
2022/06/03 10:30:05;;;;;;;2.55;2.30;;;23.10;99.90;;;;;;5073105;28;20189;-68
2022/06/03 10:32:31;;;;;;;2.40;2.20;;;23.10;99.90;;;;;;5073769;28;20642;-68
2022/06/03 10:35:28;;;;;;;4.72;2.40;;;23.00;99.90;;;;;;5072177;28;20235;-68
2022/06/03 10:37:56;;;;;;;4.60;2.25;;;23.00;99.90;;;;;;5068993;28;20232;-68
2022/06/03 10:40:24;;;;;;;4.40;2.25;;;23.00;99.90;;;;;;5073597;28;20646;-68
2022/06/03 10:42:54;;;;;;;2.40;2.20;;;23.10;99.90;;;;;;5073689;28;20193;-68
2022/06/03 10:45:28;;;;;;;3.55;2.40;;;23.30;99.90;;;;;;5071804;28;20177;-68
2022/06/03 10:47:55;;;;;;;2.70;2.00;;;23.40;99.90;;;;;;5073627;28;20633;-68
2022/06/03 10:50:33;;;;;;;2.40;2.20;;;23.50;99.90;;;;;;5073379;28;20194;-68
2022/06/03 11:01:55;;;;;;;1.90;1.80;;;23.90;99.90;;;;;;5073671;28;20212;-69
2022/06/03 11:04:38;;;;;;;2.08;1.95;;;23.80;99.90;;;;;;5072750;28;20177;-69
2022/06/03 11:07:32;;;;;;;1.85;1.70;;;23.70;99.90;;;;;;5077553;28;20161;-68
2022/06/03 11:10:00;;;;;;;6.03;1.83;;;23.70;99.90;;;;;;5075865;28;20231;-69
2022/06/03 11:12:28;;;;;;;6.10;2.00;;;24.00;99.90;;;;;;5075910;28;20692;-70
2022/06/03 11:14:54;;;;;;;1.83;1.73;;;24.20;99.90;;;;;;5076946;28;20216;-69
2022/06/03 11:17:23;;;;;;;3.65;2.33;;;24.20;99.90;;;;;;5076751;28;20697;-68
2022/06/03 11:19:52;;;;;;;2.08;1.98;;;23.80;99.90;;;;;;5077360;28;20268;-68
2022/06/03 11:22:43;;;;;;;2.40;2.13;;;23.40;99.90;;;;;;5076770;28;20173;-68
2022/06/03 11:25:21;;;;;;;3.78;2.30;;;23.30;99.90;;;;;;5076908;28;20513;-68
2022/06/03 11:28:16;;;;;;;2.80;1.90;;;23.30;99.90;;;;;;5077243;28;20163;-69
2022/06/03 11:31:10;;;;;;;2.47;2.00;;;23.50;99.90;;;;;;5068296;28;20343;-69
2022/06/03 11:33:56;;;;;;;2.03;1.90;;;23.60;99.90;;;;;;5076802;28;20162;-69
2022/06/03 11:36:36;;;;;;;2.72;1.67;;;23.50;99.90;;;;;;5075083;28;20615;-68
2022/06/03 11:39:10;;;;;;;2.00;1.83;;;23.90;99.90;;;;;;5090215;28;20226;-69
2022/06/03 11:42:08;;;;;;;5.05;2.17;;;24.30;99.90;;;;;;5096696;28;20195;-69
2022/06/03 11:44:46;;;;;;;1.90;1.70;;;24.80;99.90;;;;;;5086754;28;20193;-68
2022/06/03 11:47:53;;;;;;;2.15;1.95;;;25.10;99.90;;;;;;5095082;28;20633;-68
2022/06/03 11:50:23;;;;;;;2.28;1.73;;;25.00;99.90;;;;;;5074281;28;20241;-69
2022/06/03 11:52:50;;;;;;;2.15;1.60;;;25.20;99.90;;;;;;5057296;28;20576;-68
2022/06/03 11:55:19;;;;;;;1.90;1.80;;;25.30;99.90;;;;;;5085300;28;20665;-68
2022/06/03 11:57:55;;;;;;;2.15;1.90;;;25.20;99.90;;;;;;5094946;28;20201;-68
2022/06/03 12:00:24;;;;;;;2.25;1.80;;;25.10;99.90;;;;;;5096764;28;20539;-69
2022/06/03 12:03:05;;;;;;;2.67;2.20;;;24.80;99.90;;;;;;5095028;28;20181;-68
2022/06/03 12:05:38;;;;;;;2.33;1.92;;;24.70;99.90;;;;;;5096209;28;20169;-69
2022/06/03 12:08:13;;;;;;;2.35;1.70;;;24.60;99.90;;;;;;5096370;28;20177;-68
2022/06/03 12:11:03;;;;;;;1.90;1.80;;;24.80;99.90;;;;;;5096279;28;20275;-69
2022/06/03 12:13:33;;;;;;;1.70;1.60;;;25.40;99.90;;;;;;5096249;28;20165;-69
2022/06/03 12:16:17;;;;;;;1.70;1.60;;;26.00;99.90;;;;;;5094975;28;20181;-69
2022/06/03 12:18:54;;;;;;;1.80;1.70;;;26.60;99.90;;;;;;5095999;28;20189;-69
2022/06/03 12:21:44;;;;;;;1.85;1.67;;;27.00;99.90;;;;;;5094645;28;20204;-69
2022/06/03 12:24:45;;;;;;;2.55;1.90;;;26.70;99.90;;;;;;5085316;28;20250;-69
2022/06/03 12:27:39;;;;;;;2.35;1.70;;;25.90;99.90;;;;;;5096151;28;20161;-69
2022/06/03 12:30:14;;;;;;;2.10;1.75;;;25.50;99.90;;;;;;5094439;28;20197;-69
2022/06/03 12:32:50;;;;;;;1.73;1.60;;;25.40;99.90;;;;;;5094210;28;20177;-69
2022/06/03 12:35:44;;;;;;;1.70;1.60;;;25.40;99.90;;;;;;5096044;28;20153;-69
2022/06/03 12:38:22;;;;;;;1.65;1.55;;;25.10;99.90;;;;;;5095545;28;20178;-69
2022/06/03 12:40:57;;;;;;;1.92;1.80;;;24.70;99.90;;;;;;5094254;28;20192;-69
2022/06/03 12:43:30;;;;;;;2.13;1.80;;;24.50;99.90;;;;;;5095609;28;20164;-69
2022/06/03 12:46:34;;;;;;;1.60;1.50;;;24.30;99.90;;;;;;5095585;28;20240;-71
2022/06/03 12:49:00;;;;;;;1.77;1.60;;;24.50;99.90;;;;;;5094437;28;20185;-71
2022/06/03 12:51:26;;;;;;;2.25;2.00;;;24.60;99.90;;;;;;5095383;28;20334;-69
2022/06/03 12:54:07;;;;;;;49.65;13.15;;;24.80;99.90;;;;;;5095247;28;20252;-69
2022/06/03 12:56:55;;;;;;;22.35;7.88;;;24.80;99.90;;;;;;5095911;28;20186;-69
2022/06/03 12:59:52;;;;;;;63.10;20.65;;;25.00;99.90;;;;;;5095485;28;20172;-68
2022/06/03 13:02:22;;;;;;;6.55;3.50;;;25.10;99.90;;;;;;5093801;28;20210;-69
2022/06/03 13:04:54;;;;;;;2.22;2.00;;;25.50;99.90;;;;;;5095611;28;20241;-69
2022/06/03 13:07:26;;;;;;;2.50;2.13;;;25.60;99.90;;;;;;5093738;28;20185;-69
2022/06/03 13:10:04;;;;;;;1.80;1.70;;;25.50;99.90;;;;;;5094799;28;20209;-69
2022/06/03 13:12:32;;;;;;;3.95;2.58;;;25.50;99.90;;;;;;5093819;28;20204;-69
2022/06/03 13:15:17;;;;;;;3.17;2.42;;;25.70;99.90;;;;;;5094676;28;20654;-69
2022/06/03 13:18:12;;;;;;;2.05;1.60;;;26.00;99.90;;;;;;5094520;28;20232;-69
2022/06/03 13:21:10;;;;;;;1.60;1.50;;;26.00;99.90;;;;;;5094924;28;20561;-69
2022/06/03 13:23:42;;;;;;;2.85;1.88;;;26.30;99.90;;;;;;5093423;28;20173;-69
2022/06/03 13:26:20;;;;;;;2.55;1.90;;;26.60;99.90;;;;;;5094688;28;20550;-69
2022/06/03 13:28:54;;;;;;;2.65;1.80;;;26.90;99.90;;;;;;5094705;28;20165;-67
2022/06/03 13:31:26;;;;;;;2.10;1.80;;;27.50;99.90;;;;;;5093313;28;20200;-67
2022/06/03 13:34:07;;;;;;;2.20;1.83;;;28.00;99.90;;;;;;5095001;28;20232;-67
2022/06/03 13:36:52;;;;;;;1.90;1.67;;;28.40;99.90;;;;;;5094130;28;20202;-67
2022/06/03 13:39:23;;;;;;;1.85;1.70;;;28.90;99.90;;;;;;5094791;28;20173;-68
2022/06/03 13:45:13;;;;;;;1.80;1.70;;;29.50;99.90;;;;;;5094761;28;20237;-66
2022/06/03 13:47:42;;;;;;;3.03;1.40;;;29.20;99.90;;;;;;5075458;28;20185;-65
2022/06/03 13:50:14;;;;;;;1.67;1.58;;;29.20;99.90;;;;;;5095014;28;20192;-68
2022/06/03 13:52:46;;;;;;;1.88;1.77;;;29.00;99.90;;;;;;5093156;28;20231;-68
2022/06/03 13:55:28;;;;;;;3.47;1.63;;;29.00;99.90;;;;;;5093251;28;20200;-68
2022/06/03 13:58:03;;;;;;;1.60;1.50;;;29.20;99.90;;;;;;5093499;28;20189;-66
2022/06/03 14:00:36;;;;;;;1.58;1.48;;;29.30;99.90;;;;;;5095674;28;20215;-67
2022/06/03 14:03:04;;;;;;;3.13;1.65;;;29.70;99.90;;;;;;5095774;28;20187;-68
2022/06/03 14:05:43;;;;;;;1.65;1.35;;;29.80;99.90;;;;;;5094860;28;20610;-70
2022/06/03 14:08:18;;;;;;;3.45;1.67;;;29.70;99.90;;;;;;5095303;28;20283;-69
2022/06/03 14:10:59;;;;;;;2.10;1.50;;;29.90;99.90;;;;;;5095300;28;20196;-68
2022/06/03 14:13:53;;;;;;;2.80;1.63;;;29.90;99.90;;;;;;5097415;28;20383;-66
2022/06/03 14:16:22;;;;;;;2.70;1.50;;;29.60;99.90;;;;;;5100598;28;20181;-67
2022/06/03 14:19:09;;;;;;;2.95;1.60;;;29.50;99.90;;;;;;5098546;28;20168;-66
2022/06/03 14:21:41;;;;;;;1.40;1.30;;;29.20;99.90;;;;;;5094404;28;20201;-69
2022/06/03 14:24:30;;;;;;;2.03;1.60;;;29.00;99.90;;;;;;5095499;28;20160;-68
2022/06/03 14:26:59;;;;;;;1.67;1.33;;;29.00;99.90;;;;;;5095035;28;20153;-69
2022/06/03 14:29:34;;;;;;;1.63;1.52;;;29.20;99.90;;;;;;5094288;28;20168;-72
2022/06/03 14:32:13;;;;;;;1.48;1.38;;;29.30;99.90;;;;;;5092500;28;20193;-67